»·PEaware :: WAT175 KPHX-KBUR

WAT175 :: KPHX-KBUR

FLIGHT INFORMATION

Flight Status: Arrived
Operator:
Walker Air Transport
More flights by this operator :: More flights under this callsign
Pilot: Michael C. (27126)
Aircraft: BOEING 737-800
(B738)
More flights by this aircraft type
Origin: KPHX Phoenix Sky Harbor Intl
United States
Destination: KBUR Bob Hope-Burbank
United States
More flights between these airports :: More routes between these airports
Route: +EED JANNY5
File this flight plan on PilotEdge
Remarks: RMK / SIMBRIEF
Altitude:
(Current/Filed)
36,000ft
Speed:
(Current/Filed)
454kts
Departed: 26-Jun-20 04:59 PM
Arrived: 26-Jun-20 06:06 PM
Distance/Time
Traveled:
319nm/1:06
Distance/Time
To Go:
Arrived

Flight Plot

Page will automatically refresh every two minutes.

Flight plan parsing failed; only flown route is shown


Map Options




Map Legend


Flown Route
Filed Route
Departure Airport
Arrival Airport
Navaid (VOR, NDB)
Fix

Horizontal Profiles

Position Reports

Time Latitude Longitude Heading Altitude Ground
Speed
26-Jun-20 16:27 33.437994 -112.008174 270 1119ft 0kts
26-Jun-20 16:28 33.437994 -112.008174 270 1119ft 0kts
26-Jun-20 16:29 33.437994 -112.008174 270 1119ft 0kts
26-Jun-20 16:30 33.437994 -112.008174 270 1119ft 0kts
26-Jun-20 16:31 33.437994 -112.008174 270 1119ft 0kts
26-Jun-20 16:32 33.437994 -112.008174 269 1119ft 0kts
26-Jun-20 16:33 33.437994 -112.008174 270 1119ft 0kts
26-Jun-20 16:34 33.437994 -112.008174 270 1119ft 0kts
26-Jun-20 16:35 33.437994 -112.008174 270 1119ft 0kts
26-Jun-20 16:36 33.437994 -112.008174 270 1119ft 0kts
26-Jun-20 16:37 33.437994 -112.008174 270 1119ft 0kts
26-Jun-20 16:38 33.437994 -112.008174 270 1119ft 0kts
26-Jun-20 16:39 33.437994 -112.008174 270 1119ft 0kts
26-Jun-20 16:40 33.437994 -112.008174 270 1119ft 0kts
26-Jun-20 16:41 33.437994 -112.008174 270 1119ft 0kts
26-Jun-20 16:42 33.437994 -112.008174 270 1119ft 0kts
26-Jun-20 16:43 33.437995 -112.008174 270 1119ft 0kts
26-Jun-20 16:44 33.437994 -112.008174 270 1119ft 0kts
26-Jun-20 16:45 33.437994 -112.008174 270 1119ft 0kts
26-Jun-20 16:46 33.437994 -112.008174 270 1119ft 0kts
26-Jun-20 16:47 33.437994 -112.008174 270 1119ft 0kts
26-Jun-20 16:48 33.437994 -112.008174 270 1119ft 0kts
26-Jun-20 16:49 33.437994 -112.008174 269 1119ft 0kts
26-Jun-20 16:50 33.437631 -112.007797 6 1119ft 2kts
26-Jun-20 16:51 33.437404 -112.007806 0 1119ft 0kts
26-Jun-20 16:52 33.437451 -112.007802 6 1119ft 3kts
26-Jun-20 16:53 33.438253 -112.007355 1 1119ft 3kts
26-Jun-20 16:54 33.439769 -112.005940 93 1119ft 21kts
26-Jun-20 16:55 33.439752 -111.998016 90 1119ft 21kts
26-Jun-20 16:56 33.439822 -111.992487 51 1119ft 0kts
26-Jun-20 16:57 33.440023 -111.992317 21 1119ft 10kts
26-Jun-20 16:58 33.440814 -112.018631 269 1254ft 183kts
26-Jun-20 16:59 33.445826 -112.090011 280 3666ft 250kts
26-Jun-20 17:00 33.457669 -112.173919 309 6497ft 283kts
26-Jun-20 17:01 33.532873 -112.196614 355 9980ft 289kts
26-Jun-20 17:02 33.625178 -112.205406 347 10875ft 371kts
26-Jun-20 17:03 33.728699 -112.237593 342 13294ft 386kts
26-Jun-20 17:04 33.805187 -112.318664 295 15608ft 381kts
26-Jun-20 17:05 33.857853 -112.436197 295 17078ft 411kts
26-Jun-20 17:06 33.913354 -112.560184 295 18916ft 421kts
26-Jun-20 17:07 33.968669 -112.683798 294 20700ft 428kts
26-Jun-20 17:08 34.025717 -112.811443 294 22295ft 437kts
26-Jun-20 17:09 34.084467 -112.942975 295 23753ft 447kts
26-Jun-20 17:10 34.145096 -113.078769 295 25192ft 455kts
26-Jun-20 17:11 34.205652 -113.214456 295 26675ft 458kts
26-Jun-20 17:12 34.266095 -113.349909 295 28572ft 451kts
26-Jun-20 17:13 34.325323 -113.482705 296 30422ft 444kts
26-Jun-20 17:14 34.383207 -113.612557 296 32141ft 436kts
26-Jun-20 17:15 34.438269 -113.736236 295 33683ft 429kts
26-Jun-20 17:16 34.494365 -113.862386 295 35079ft 423kts
26-Jun-20 17:17 34.550247 -113.988127 295 35769ft 423kts
26-Jun-20 17:18 34.605197 -114.111794 295 35772ft 418kts
26-Jun-20 17:19 34.660563 -114.236489 296 35771ft 420kts
26-Jun-20 17:20 34.715916 -114.361189 296 35774ft 419kts
26-Jun-20 17:21 34.758551 -114.490787 277 35781ft 414kts
26-Jun-20 17:22 34.768129 -114.630407 272 35780ft 414kts
26-Jun-20 17:23 34.772443 -114.771324 271 35780ft 414kts
26-Jun-20 17:24 34.775699 -114.911539 270 35780ft 414kts
26-Jun-20 17:25 34.778421 -115.051333 272 35780ft 413kts
26-Jun-20 17:26 34.780974 -115.192812 275 35780ft 427kts
26-Jun-20 17:27 34.783628 -115.339397 275 35778ft 433kts
26-Jun-20 17:28 34.786121 -115.485445 275 35798ft 431kts
26-Jun-20 17:29 34.788450 -115.631395 275 35893ft 428kts
26-Jun-20 17:30 34.790545 -115.774940 274 33777ft 423kts
26-Jun-20 17:31 34.792698 -115.919772 274 30745ft 432kts
26-Jun-20 17:32 34.795323 -116.068306 273 27630ft 441kts
26-Jun-20 17:33 34.797947 -116.215958 273 24484ft 433kts
26-Jun-20 17:34 34.794438 -116.353567 270 23900ft 375kts
26-Jun-20 17:35 34.790121 -116.482974 270 23819ft 386kts
26-Jun-20 17:36 34.782432 -116.610657 265 22886ft 369kts
26-Jun-20 17:37 34.769990 -116.738076 265 21871ft 372kts
26-Jun-20 17:38 34.757657 -116.863824 265 21880ft 374kts
26-Jun-20 17:39 34.744986 -116.989339 265 21907ft 374kts
26-Jun-20 17:40 34.732156 -117.115935 266 21950ft 376kts
26-Jun-20 17:42 34.719176 -117.242920 266 21962ft 375kts
26-Jun-20 17:43 34.706263 -117.367783 266 20592ft 366kts
26-Jun-20 17:44 34.693461 -117.489436 265 18936ft 351kts
26-Jun-20 17:45 34.680365 -117.610119 265 18341ft 357kts
26-Jun-20 17:46 34.667680 -117.729306 264 16398ft 350kts
26-Jun-20 17:47 34.654891 -117.849710 264 14230ft 360kts
26-Jun-20 17:48 34.642011 -117.967528 264 13487ft 348kts
26-Jun-20 17:49 34.627381 -118.082837 256 11495ft 343kts
26-Jun-20 17:50 34.602990 -118.191932 256 10267ft 313kts
26-Jun-20 17:51 34.580683 -118.292192 257 8963ft 298kts
26-Jun-20 17:52 34.560112 -118.383661 256 8010ft 274kts
26-Jun-20 17:53 34.515171 -118.459669 216 7998ft 284kts
26-Jun-20 17:54 34.447990 -118.512249 212 7984ft 285kts
26-Jun-20 17:55 34.384885 -118.560998 211 7084ft 278kts
26-Jun-20 17:55 34.326038 -118.585371 201 6004ft 276kts
26-Jun-20 17:57 34.274431 -118.624248 212 5244ft 260kts
26-Jun-20 17:58 34.214116 -118.655934 161 3416ft 264kts
26-Jun-20 17:58 34.192132 -118.610996 96 3000ft 232kts
26-Jun-20 18:00 34.203138 -118.554183 82 2964ft 166kts
26-Jun-20 18:01 34.199162 -118.502948 92 2967ft 151kts
26-Jun-20 18:01 34.199204 -118.477253 93 2511ft 147kts
26-Jun-20 18:03 34.198652 -118.430449 93 1772ft 150kts
26-Jun-20 18:03 34.198451 -118.396091 92 1282ft 163kts
26-Jun-20 18:04 34.197598 -118.353054 89 740ft 80kts
26-Jun-20 18:05 34.197255 -118.350000 225 740ft 3kts
26-Jun-20 18:06 34.196878 -118.351469 195 740ft 0kts
26-Jun-20 18:07 34.197885 -118.365212 92 754ft 156kts
26-Jun-20 18:08 34.197313 -118.349945 201 740ft 2kts
26-Jun-20 18:09 34.196876 -118.351469 195 740ft 0kts
26-Jun-20 18:10 34.196876 -118.351469 195 740ft 0kts

Navigation Log

Ident Type
Flight plan parsing failed, navigation log unavailable